createdAt,value
2023-06-30T00:01:01.987Z,3.90
2023-06-30T00:04:05.081Z,3.30
2023-06-30T00:07:07.705Z,3.53
2023-06-30T00:10:11.048Z,3.60
2023-06-30T00:13:13.692Z,3.58
2023-06-30T00:16:16.663Z,3.17
2023-06-30T00:19:20.166Z,3.47
2023-06-30T00:22:23.071Z,3.53
2023-06-30T00:25:25.584Z,3.35
2023-06-30T00:28:28.628Z,3.80
2023-06-30T00:31:31.226Z,3.40
2023-06-30T00:34:34.094Z,4.05
2023-06-30T00:37:36.592Z,3.92
2023-06-30T00:40:39.786Z,3.90
2023-06-30T00:43:43.033Z,3.80
2023-06-30T00:46:45.928Z,3.90
2023-06-30T00:49:48.582Z,3.70
2023-06-30T00:52:51.846Z,3.97
2023-06-30T00:55:54.492Z,4.30
2023-06-30T00:58:58.436Z,4.20
2023-06-30T01:02:08.153Z,3.92
2023-06-30T01:05:40.026Z,4.15
2023-06-30T01:09:05.158Z,4.00
2023-06-30T01:12:08.585Z,4.30
2023-06-30T01:15:13.547Z,3.85
2023-06-30T01:18:20.952Z,3.70
2023-06-30T01:21:24.098Z,3.92
2023-06-30T01:24:34.995Z,3.85
2023-06-30T01:27:40.686Z,3.40
2023-06-30T01:30:45.013Z,3.60
2023-06-30T01:33:48.193Z,3.80
2023-06-30T01:36:51.228Z,3.58
2023-06-30T01:39:53.697Z,3.62
2023-06-30T01:42:57.981Z,3.67
2023-06-30T01:46:00.967Z,3.80
2023-06-30T01:49:04.319Z,3.83
2023-06-30T01:52:07.259Z,3.67
2023-06-30T01:55:10.484Z,3.62
2023-06-30T01:58:12.980Z,4.05
2023-06-30T02:01:16.140Z,3.85
2023-06-30T02:04:19.040Z,4.15
2023-06-30T02:07:24.524Z,3.70
2023-06-30T02:10:27.460Z,3.78
2023-06-30T02:13:30.577Z,4.10
2023-06-30T02:16:33.566Z,4.07
2023-06-30T02:19:36.075Z,4.35
2023-06-30T02:22:39.945Z,4.15
2023-06-30T02:25:42.780Z,3.80
2023-06-30T02:28:45.900Z,3.92
2023-06-30T02:31:48.726Z,3.97
2023-06-30T02:34:51.779Z,3.92
2023-06-30T02:37:54.299Z,4.03
2023-06-30T02:40:59.061Z,3.90
2023-06-30T02:44:01.517Z,4.30
2023-06-30T02:47:04.987Z,4.07
2023-06-30T02:50:09.795Z,4.18
2023-06-30T02:53:13.099Z,4.40
2023-06-30T02:56:15.650Z,4.12
2023-06-30T02:59:18.924Z,4.62
2023-06-30T03:02:21.755Z,4.28
2023-06-30T03:05:25.056Z,4.45
2023-06-30T03:08:27.714Z,4.25
2023-06-30T03:11:30.630Z,4.30
2023-06-30T03:14:33.185Z,4.20
2023-06-30T03:17:37.847Z,4.50
2023-06-30T03:20:40.497Z,4.05
2023-06-30T03:23:43.402Z,3.90
2023-06-30T03:26:46.854Z,4.20
2023-06-30T03:29:49.875Z,4.45
2023-06-30T03:32:52.554Z,4.43
2023-06-30T03:35:55.350Z,4.30
2023-06-30T03:38:57.945Z,4.68
2023-06-30T03:42:00.723Z,4.18
2023-06-30T03:45:03.440Z,4.00
2023-06-30T03:48:07.335Z,4.60
2023-06-30T03:51:10.376Z,3.97
2023-06-30T03:54:13.216Z,4.30
2023-06-30T03:57:15.792Z,4.28
2023-06-30T04:00:19.036Z,4.43
2023-06-30T04:03:24.288Z,4.15
2023-06-30T04:06:28.353Z,4.70
2023-06-30T04:09:31.272Z,4.30
2023-06-30T04:12:33.838Z,4.72
2023-06-30T04:15:36.965Z,4.15
2023-06-30T04:18:39.613Z,4.57
2023-06-30T04:21:42.569Z,6.82
2023-06-30T04:24:45.020Z,4.62
2023-06-30T04:27:47.890Z,4.87
2023-06-30T04:30:50.376Z,5.00
2023-06-30T04:33:53.158Z,4.90
2023-06-30T04:36:55.714Z,5.68
2023-06-30T04:39:59.391Z,5.60
2023-06-30T04:43:02.051Z,5.97
2023-06-30T04:46:05.210Z,5.85
2023-06-30T04:49:07.888Z,6.57
2023-06-30T04:52:10.880Z,6.20
2023-06-30T04:55:16.049Z,6.07
2023-06-30T04:58:19.492Z,7.43
2023-06-30T05:01:22.031Z,7.10
2023-06-30T05:04:24.972Z,7.45
2023-06-30T05:07:27.735Z,7.20
2023-06-30T05:10:30.630Z,7.68
2023-06-30T05:13:33.304Z,7.07
2023-06-30T05:16:36.338Z,8.65
2023-06-30T05:19:39.088Z,21.33
2023-06-30T05:22:41.996Z,9.10
2023-06-30T05:25:44.777Z,8.50
2023-06-30T05:29:00.100Z,22.40
2023-06-30T05:32:08.633Z,7.80
2023-06-30T05:35:11.542Z,11.82
2023-06-30T05:38:14.076Z,7.95
2023-06-30T05:41:16.889Z,8.27
2023-06-30T05:44:19.424Z,8.50
2023-06-30T05:47:22.343Z,8.75
2023-06-30T05:50:25.135Z,21.73
2023-06-30T05:53:27.993Z,39.15
2023-06-30T05:56:31.093Z,13.93
2023-06-30T05:59:35.059Z,8.93
2023-06-30T06:02:38.236Z,8.52
2023-06-30T06:05:41.288Z,7.82
2023-06-30T06:08:45.697Z,8.32
2023-06-30T06:11:48.640Z,7.20
2023-06-30T06:14:51.401Z,7.03
2023-06-30T06:17:54.528Z,6.53
2023-06-30T06:20:57.919Z,6.87
2023-06-30T06:24:00.842Z,6.40
2023-06-30T06:27:03.472Z,6.00
2023-06-30T06:30:06.886Z,5.97
2023-06-30T06:33:09.549Z,4.87
2023-06-30T06:36:12.403Z,4.20
2023-06-30T06:39:15.578Z,5.18
2023-06-30T06:42:18.474Z,4.60
2023-06-30T06:45:24.519Z,4.00
2023-06-30T06:48:29.330Z,14.75
2023-06-30T06:51:32.035Z,4.22
2023-06-30T06:54:34.878Z,3.05
2023-06-30T06:57:37.527Z,3.65
2023-06-30T07:00:40.469Z,2.75
2023-06-30T07:03:42.990Z,3.17
2023-06-30T07:06:45.848Z,3.28
2023-06-30T07:09:48.335Z,3.00
2023-06-30T07:12:53.322Z,3.03
2023-06-30T07:15:55.919Z,3.22
2023-06-30T07:18:58.848Z,3.10
2023-06-30T07:22:01.479Z,3.22
2023-06-30T07:25:07.549Z,3.97
2023-06-30T07:28:10.285Z,2.90
2023-06-30T07:31:13.422Z,3.05
2023-06-30T07:34:19.409Z,2.80
2023-06-30T07:37:22.317Z,3.20
2023-06-30T07:40:25.043Z,2.62
2023-06-30T07:43:28.574Z,2.65
2023-06-30T07:46:32.417Z,1.98
2023-06-30T07:49:35.423Z,2.70
2023-06-30T07:55:51.994Z,2.53
2023-06-30T07:58:54.616Z,2.28
2023-06-30T08:01:57.625Z,2.75
2023-06-30T08:05:00.635Z,3.10
2023-06-30T08:08:04.091Z,2.20
2023-06-30T08:11:07.613Z,2.08
2023-06-30T08:14:10.125Z,3.75
2023-06-30T08:17:12.896Z,1.90
2023-06-30T08:20:24.824Z,2.25
2023-06-30T08:23:28.107Z,2.17
2023-06-30T08:26:30.705Z,1.80
2023-06-30T08:29:33.548Z,2.10
2023-06-30T08:32:36.063Z,1.90
2023-06-30T08:35:38.936Z,2.10
2023-06-30T08:38:41.683Z,2.15
2023-06-30T08:41:46.643Z,2.85
2023-06-30T08:44:53.703Z,2.15
2023-06-30T08:48:08.226Z,1.65
2023-06-30T08:51:11.847Z,1.37
2023-06-30T08:54:14.860Z,1.58
2023-06-30T08:57:18.739Z,1.70
2023-06-30T09:00:21.829Z,1.75
2023-06-30T09:03:24.917Z,1.30
2023-06-30T09:06:28.280Z,2.58
2023-06-30T09:09:38.930Z,1.90
2023-06-30T09:12:47.694Z,2.15
2023-06-30T09:15:51.380Z,1.75
2023-06-30T09:18:54.449Z,1.42
2023-06-30T09:21:58.157Z,1.60
2023-06-30T09:25:01.123Z,2.50
2023-06-30T09:28:09.872Z,1.50
2023-06-30T09:31:13.658Z,1.35
2023-06-30T09:34:16.263Z,1.35
2023-06-30T09:37:19.177Z,2.28
2023-06-30T09:40:26.072Z,3.85
2023-06-30T09:43:29.288Z,1.67
2023-06-30T09:46:32.225Z,1.75
2023-06-30T09:49:35.322Z,1.67
2023-06-30T09:52:38.778Z,1.70
2023-06-30T09:55:50.606Z,1.80
2023-06-30T09:59:00.938Z,1.30
2023-06-30T10:02:04.225Z,1.40
2023-06-30T10:05:08.491Z,1.33
2023-06-30T10:08:13.671Z,1.50
2023-06-30T10:11:16.998Z,1.25
2023-06-30T10:14:29.369Z,1.30
2023-06-30T10:17:33.563Z,1.02
2023-06-30T10:20:47.236Z,1.42
2023-06-30T10:23:53.215Z,1.20
2023-06-30T10:26:56.530Z,1.23
2023-06-30T10:29:59.480Z,1.40
2023-06-30T10:33:02.230Z,1.30
2023-06-30T10:36:08.975Z,1.60
2023-06-30T10:39:12.270Z,1.40
2023-06-30T10:42:17.019Z,1.40
2023-06-30T10:45:21.382Z,1.27
2023-06-30T10:48:28.604Z,1.05
2023-06-30T10:51:38.017Z,1.40
2023-06-30T10:54:47.638Z,1.33
2023-06-30T10:57:54.752Z,1.42
2023-06-30T11:01:07.323Z,1.30
2023-06-30T11:04:09.848Z,1.40
2023-06-30T11:07:29.396Z,1.37
2023-06-30T11:10:37.502Z,1.30
2023-06-30T11:13:41.354Z,1.60
2023-06-30T11:17:05.162Z,1.70
2023-06-30T11:20:07.962Z,1.50
2023-06-30T11:23:19.067Z,1.45
2023-06-30T11:26:21.975Z,1.45
2023-06-30T11:29:24.777Z,1.58
2023-06-30T11:32:29.362Z,1.60
2023-06-30T11:35:33.809Z,1.48
2023-06-30T11:38:41.974Z,1.50
2023-06-30T11:41:45.071Z,1.40
2023-06-30T11:44:51.867Z,1.50
2023-06-30T11:47:57.154Z,1.67
2023-06-30T11:51:03.602Z,1.50
2023-06-30T11:54:07.834Z,1.80
2023-06-30T11:57:11.024Z,1.40
2023-06-30T12:00:26.376Z,1.60
2023-06-30T12:03:31.252Z,1.25
2023-06-30T12:06:37.156Z,1.20
2023-06-30T12:09:44.562Z,1.45
2023-06-30T12:13:00.042Z,1.12
2023-06-30T12:16:04.448Z,1.27
2023-06-30T12:19:09.462Z,1.60
2023-06-30T12:22:13.964Z,1.40
2023-06-30T12:25:17.378Z,1.65
2023-06-30T12:28:20.014Z,1.65
2023-06-30T12:31:32.700Z,1.67
2023-06-30T12:34:36.971Z,2.15
2023-06-30T12:37:40.619Z,1.80
2023-06-30T12:40:43.233Z,1.45
2023-06-30T12:43:46.344Z,1.80
2023-06-30T12:47:09.335Z,1.95
2023-06-30T12:50:14.429Z,1.55
2023-06-30T12:53:17.009Z,1.60
2023-06-30T12:56:19.824Z,1.62
2023-06-30T12:59:22.452Z,1.40
2023-06-30T13:02:25.708Z,1.67
2023-06-30T13:05:28.329Z,1.40
2023-06-30T13:08:31.494Z,1.27
2023-06-30T13:11:34.748Z,1.30
2023-06-30T13:14:37.760Z,1.80
2023-06-30T13:17:40.681Z,1.77
2023-06-30T13:20:43.682Z,2.15
2023-06-30T13:23:46.604Z,2.10
2023-06-30T13:26:49.557Z,1.42
2023-06-30T13:29:52.810Z,1.83
2023-06-30T13:32:57.233Z,2.33
2023-06-30T13:36:00.789Z,2.67
2023-06-30T13:39:04.470Z,2.00
2023-06-30T13:42:08.221Z,1.95
2023-06-30T13:45:14.677Z,1.33
2023-06-30T13:48:17.485Z,1.45
2023-06-30T13:51:22.242Z,1.90
2023-06-30T13:54:25.285Z,3.10
2023-06-30T13:57:28.346Z,1.83
2023-06-30T14:00:30.973Z,1.67
2023-06-30T14:03:34.559Z,1.80
2023-06-30T14:06:37.294Z,1.83
2023-06-30T14:09:42.633Z,1.80
2023-06-30T14:12:45.594Z,1.87
2023-06-30T14:15:48.679Z,2.17
2023-06-30T14:18:51.551Z,2.03
2023-06-30T14:21:54.641Z,1.95
2023-06-30T14:24:57.365Z,1.70
2023-06-30T14:28:00.251Z,2.25
2023-06-30T14:31:02.943Z,1.70
2023-06-30T14:34:06.077Z,2.08
2023-06-30T14:37:12.144Z,1.70
2023-06-30T14:40:15.132Z,1.65
2023-06-30T14:43:17.830Z,1.98
2023-06-30T14:46:20.883Z,2.08
2023-06-30T14:49:23.657Z,1.70
2023-06-30T14:52:26.468Z,1.58
2023-06-30T14:55:29.040Z,1.48
2023-06-30T14:58:31.910Z,1.80
2023-06-30T15:01:34.617Z,2.10
2023-06-30T15:04:37.719Z,1.48
2023-06-30T15:07:40.326Z,1.70
2023-06-30T15:10:43.273Z,1.50
2023-06-30T15:13:45.883Z,1.50
2023-06-30T15:16:49.488Z,1.75
2023-06-30T15:19:52.672Z,1.95
2023-06-30T15:22:55.911Z,1.60
2023-06-30T15:25:58.586Z,1.50
2023-06-30T15:29:01.560Z,1.40
2023-06-30T15:32:19.928Z,2.35
2023-06-30T15:35:25.677Z,1.60
2023-06-30T15:38:28.352Z,1.60
2023-06-30T15:41:31.244Z,1.92
2023-06-30T15:44:33.957Z,1.50
2023-06-30T15:47:36.982Z,1.35
2023-06-30T15:50:41.498Z,1.87
2023-06-30T15:53:44.394Z,1.58
2023-06-30T15:56:47.109Z,1.60
2023-06-30T15:59:49.903Z,1.40
2023-06-30T16:02:54.015Z,1.70
2023-06-30T16:05:57.165Z,1.50
2023-06-30T16:08:59.756Z,1.45
2023-06-30T16:12:02.688Z,1.48
2023-06-30T16:15:08.859Z,1.60
2023-06-30T16:18:11.666Z,1.65
2023-06-30T16:21:14.306Z,1.60
2023-06-30T16:24:20.297Z,1.70
2023-06-30T16:27:23.167Z,1.80
2023-06-30T16:30:33.353Z,2.35
2023-06-30T16:33:36.399Z,1.70
2023-06-30T16:36:40.987Z,1.50
2023-06-30T16:39:43.986Z,1.83
2023-06-30T16:42:48.188Z,1.80
2023-06-30T16:45:51.441Z,1.70
2023-06-30T16:48:54.589Z,1.90
2023-06-30T16:51:57.154Z,1.90
2023-06-30T16:54:59.898Z,1.90
2023-06-30T16:58:02.477Z,2.00
2023-06-30T17:01:05.390Z,1.90
2023-06-30T17:04:08.006Z,1.73
2023-06-30T17:07:11.564Z,1.95
2023-06-30T17:10:14.763Z,1.75
2023-06-30T17:13:17.589Z,1.80
2023-06-30T17:16:22.350Z,1.73
2023-06-30T17:19:28.534Z,1.60
2023-06-30T17:22:31.219Z,1.67
2023-06-30T17:25:34.143Z,1.50
2023-06-30T17:28:36.875Z,1.40
2023-06-30T17:31:39.661Z,1.70
2023-06-30T17:34:42.280Z,2.00
2023-06-30T17:37:45.246Z,1.62
2023-06-30T17:40:47.944Z,2.08
2023-06-30T17:43:51.260Z,2.03
2023-06-30T17:46:54.068Z,1.80
2023-06-30T17:49:57.134Z,1.70
2023-06-30T17:52:59.939Z,2.17
2023-06-30T17:56:02.986Z,2.20
2023-06-30T17:59:05.669Z,1.58
2023-06-30T18:02:08.767Z,1.60
2023-06-30T18:05:11.910Z,2.00
2023-06-30T18:08:14.688Z,1.73
2023-06-30T18:11:17.683Z,1.55
2023-06-30T18:14:20.412Z,2.00
2023-06-30T18:17:23.415Z,1.70
2023-06-30T18:20:27.030Z,1.65
2023-06-30T18:23:29.900Z,2.00
2023-06-30T18:26:32.478Z,1.80
2023-06-30T18:29:35.398Z,2.08
2023-06-30T18:32:37.985Z,1.70
2023-06-30T18:35:40.853Z,2.03
2023-06-30T18:38:43.312Z,2.03
2023-06-30T18:41:46.187Z,1.75
2023-06-30T18:44:49.306Z,1.80
2023-06-30T18:47:52.260Z,2.20
2023-06-30T18:50:54.967Z,1.85
2023-06-30T18:53:57.811Z,1.83
2023-06-30T18:57:00.488Z,2.28
2023-06-30T19:00:04.508Z,2.00
2023-06-30T19:03:12.958Z,2.30
2023-06-30T19:06:16.303Z,2.25
2023-06-30T19:09:19.035Z,2.60
2023-06-30T19:12:21.867Z,2.35
2023-06-30T19:15:24.423Z,2.30
2023-06-30T19:18:27.265Z,2.00
2023-06-30T19:21:29.909Z,3.00
2023-06-30T19:24:33.219Z,2.67
2023-06-30T19:27:35.784Z,2.55
2023-06-30T19:30:38.593Z,2.28
2023-06-30T19:33:41.530Z,2.75
2023-06-30T19:36:44.560Z,2.40
2023-06-30T19:39:47.223Z,2.60
2023-06-30T19:42:50.281Z,2.70
2023-06-30T19:45:52.863Z,2.55
2023-06-30T19:48:55.672Z,2.60
2023-06-30T19:51:58.828Z,2.55
2023-06-30T19:55:01.607Z,2.50
2023-06-30T19:58:04.252Z,2.92
2023-06-30T20:01:07.081Z,2.75
2023-06-30T20:04:13.027Z,2.60
2023-06-30T20:07:15.616Z,3.47
2023-06-30T20:10:18.903Z,3.33
2023-06-30T20:13:21.394Z,3.28
2023-06-30T20:16:24.121Z,3.15
2023-06-30T20:19:26.881Z,2.50
2023-06-30T20:22:31.468Z,2.47
2023-06-30T20:25:34.205Z,2.62
2023-06-30T20:28:37.228Z,2.50
2023-06-30T20:31:39.812Z,2.50
2023-06-30T20:34:44.066Z,2.50
2023-06-30T20:37:47.490Z,2.55
2023-06-30T20:40:51.128Z,2.90
2023-06-30T20:43:54.134Z,2.65
2023-06-30T20:46:57.261Z,3.03
2023-06-30T20:49:59.897Z,3.50
2023-06-30T20:53:03.686Z,3.42
2023-06-30T20:56:06.484Z,3.30
2023-06-30T20:59:09.422Z,3.22
2023-06-30T21:02:11.968Z,3.80
2023-06-30T21:05:14.975Z,4.15
2023-06-30T21:08:17.562Z,3.90
2023-06-30T21:11:20.956Z,4.03
2023-06-30T21:14:24.708Z,4.20
2023-06-30T21:17:27.614Z,4.15
2023-06-30T21:20:30.211Z,3.85
2023-06-30T21:23:33.531Z,3.78
2023-06-30T21:26:36.177Z,3.95
2023-06-30T21:29:39.528Z,3.95
2023-06-30T21:32:42.163Z,4.15
2023-06-30T21:35:45.014Z,4.22
2023-06-30T21:38:47.622Z,3.85
2023-06-30T21:41:50.503Z,3.67
2023-06-30T21:44:53.154Z,3.92
2023-06-30T21:47:55.968Z,4.28
2023-06-30T21:50:58.515Z,4.40
2023-06-30T21:54:05.440Z,4.10
2023-06-30T21:57:07.870Z,3.80
2023-06-30T22:00:11.065Z,3.83
2023-06-30T22:03:13.608Z,3.78
2023-06-30T22:06:16.560Z,3.83
2023-06-30T22:09:18.970Z,3.92
2023-06-30T22:12:21.728Z,4.05
2023-06-30T22:15:25.257Z,4.07
2023-06-30T22:18:28.041Z,3.87
2023-06-30T22:21:30.626Z,3.95
2023-06-30T22:24:33.463Z,3.90
2023-06-30T22:27:36.002Z,4.00
2023-06-30T22:30:38.789Z,4.00
2023-06-30T22:33:41.278Z,3.80
2023-06-30T22:36:44.712Z,3.75
2023-06-30T22:39:48.274Z,3.60
2023-06-30T22:42:51.041Z,3.75
2023-06-30T22:45:53.528Z,4.15
2023-06-30T22:48:56.348Z,3.83
2023-06-30T22:51:58.931Z,3.97
2023-06-30T22:55:02.188Z,4.22
2023-06-30T22:58:04.768Z,4.15
2023-06-30T23:01:08.542Z,4.35
2023-06-30T23:04:11.887Z,4.20
2023-06-30T23:07:14.942Z,4.15
2023-06-30T23:10:17.604Z,3.97
2023-06-30T23:13:20.367Z,3.83
2023-06-30T23:16:23.765Z,4.55
2023-06-30T23:19:27.668Z,4.25
2023-06-30T23:22:30.876Z,4.03
2023-06-30T23:25:35.112Z,3.60
2023-06-30T23:28:38.804Z,4.68
2023-06-30T23:31:42.049Z,4.20
2023-06-30T23:34:44.784Z,3.90
2023-06-30T23:37:47.596Z,4.35
2023-06-30T23:40:50.088Z,3.50
2023-06-30T23:43:54.037Z,4.35
2023-06-30T23:46:56.698Z,3.70
2023-06-30T23:49:59.651Z,3.80
2023-06-30T23:53:02.135Z,3.70
2023-06-30T23:56:05.097Z,3.50
2023-06-30T23:59:07.918Z,3.80
